Time;durP1;ratioP1;P1;durP2;ratioP2;P2;SDS_P1;SDS_P2;PMS_P1;PMS_P2;Temp;Humidity;BMP_temperature;BMP_pressure;BME280_temperature;BME280_humidity;BME280_pressure;Samples;Min_cycle;Max_cycle;Signal;HPM_P1;HPM_P2
2022/03/05 00:01:48;;;;;;;8.90;5.58;;;;;;;2.14;59.58;99911.82;1714465;83;21910;-69
2022/03/05 00:04:15;;;;;;;10.10;5.85;;;;;;;2.20;59.97;99919.14;1714271;83;21187;-69
2022/03/05 00:06:42;;;;;;;9.80;5.78;;;;;;;2.19;59.97;99908.78;1714451;83;21054;-70
2022/03/05 00:09:08;;;;;;;10.10;6.03;;;;;;;2.18;58.94;99910.50;1714499;83;21105;-70
2022/03/05 00:11:38;;;;;;;11.40;7.30;;;;;;;2.15;60.60;99910.52;1714462;83;21093;-70
2022/03/05 00:14:05;;;;;;;10.90;7.03;;;;;;;2.29;59.84;99912.59;1714556;83;21588;-70
2022/03/05 00:16:31;;;;;;;10.25;7.12;;;;;;;2.41;60.23;99914.68;1750680;82;21748;-69
2022/03/05 00:18:58;;;;;;;12.10;7.67;;;;;;;2.54;58.82;99915.46;1714554;83;21634;-71
2022/03/05 00:21:25;;;;;;;10.43;6.70;;;;;;;2.48;59.20;99912.45;1714709;83;21046;-68
2022/03/05 00:23:52;;;;;;;12.85;7.50;;;;;;;2.38;59.17;99909.52;1714942;83;21037;-69
2022/03/05 00:26:19;;;;;;;13.70;7.47;;;;;;;2.41;58.86;99906.88;1714464;83;21254;-70
2022/03/05 00:28:45;;;;;;;14.75;8.68;;;;;;;2.29;58.67;99909.99;1727368;82;21022;-69
2022/03/05 00:31:12;;;;;;;11.25;7.33;;;;;;;2.28;59.04;99912.17;1781321;80;21069;-72
2022/03/05 00:33:38;;;;;;;9.75;5.87;;;;;;;2.17;58.94;99911.38;1781470;80;21065;-69
2022/03/05 00:36:06;;;;;;;9.88;6.92;;;;;;;2.26;61.40;99906.12;1781326;80;22107;-70
2022/03/05 00:38:32;;;;;;;8.63;6.20;;;;;;;2.44;60.24;99909.45;1751260;80;21177;-69
2022/03/05 00:40:59;;;;;;;11.33;6.17;;;;;;;2.52;60.42;99908.52;1781155;80;21018;-69
2022/03/05 00:43:26;;;;;;;9.00;5.72;;;;;;;2.67;60.42;99906.25;1781312;79;21046;-69
2022/03/05 00:45:52;;;;;;;8.98;5.45;;;;;;;2.80;60.32;99904.84;1781529;80;21045;-70
2022/03/05 00:48:19;;;;;;;6.60;4.35;;;;;;;2.89;59.90;99905.61;1781425;80;21033;-70
2022/03/05 00:50:48;;;;;;;7.15;4.80;;;;;;;2.86;59.17;99900.45;1781605;80;21141;-70
2022/03/05 00:53:17;;;;;;;6.33;4.45;;;;;;;2.79;59.09;99907.88;1774580;80;21124;-68
2022/03/05 00:55:44;;;;;;;7.08;3.83;;;;;;;2.71;59.72;99902.76;1717370;80;21103;-70
2022/03/05 00:58:13;;;;;;;6.75;4.30;;;;;;;2.73;59.83;99905.32;1712998;82;21082;-69
2022/03/05 01:00:41;;;;;;;6.17;4.10;;;;;;;2.83;59.47;99910.00;1712914;83;21469;-71
2022/03/05 01:03:07;;;;;;;6.85;3.85;;;;;;;2.82;58.22;99910.89;1712916;82;21320;-69
2022/03/05 01:05:34;;;;;;;6.22;4.08;;;;;;;2.61;58.08;99907.59;1712787;83;21055;-70
2022/03/05 01:08:00;;;;;;;5.92;3.55;;;;;;;2.53;60.65;99904.17;1713023;83;22036;-69
2022/03/05 01:10:27;;;;;;;5.53;3.77;;;;;;;2.66;61.84;99908.41;1712776;82;21031;-69
2022/03/05 01:12:54;;;;;;;5.20;3.90;;;;;;;2.81;61.70;99902.67;1712891;83;21118;-68
2022/03/05 01:15:20;;;;;;;6.20;3.40;;;;;;;2.90;59.23;99902.59;1712844;83;21929;-70
2022/03/05 01:17:48;;;;;;;5.87;3.83;;;;;;;2.91;59.63;99908.20;1712732;82;21231;-69
2022/03/05 01:20:15;;;;;;;5.95;3.65;;;;;;;3.01;59.38;99902.02;1712869;82;21067;-70
2022/03/05 01:22:41;;;;;;;5.20;3.33;;;;;;;3.00;59.25;99900.31;1713013;83;21063;-69
2022/03/05 01:25:09;;;;;;;5.83;3.47;;;;;;;3.04;57.59;99903.76;1712925;83;21118;-68
2022/03/05 01:27:35;;;;;;;7.22;3.60;;;;;;;3.06;59.40;99904.16;1712910;82;21234;-70
2022/03/05 01:30:02;;;;;;;5.37;3.50;;;;;;;3.13;59.16;99901.06;1712857;83;21579;-70
2022/03/05 01:32:29;;;;;;;5.30;3.25;;;;;;;3.11;58.61;99906.27;1712850;83;21052;-71
2022/03/05 01:34:55;;;;;;;7.08;3.70;;;;;;;3.12;59.09;99903.22;1712989;82;21071;-69
2022/03/05 01:37:22;;;;;;;5.78;3.15;;;;;;;3.28;58.89;99910.44;1712978;82;21028;-69
2022/03/05 01:39:48;;;;;;;6.05;3.33;;;;;;;3.41;59.34;99904.22;1713021;83;21250;-68
2022/03/05 01:42:20;;;;;;;5.28;3.35;;;;;;;3.52;57.78;99899.75;1712982;82;21103;-68
2022/03/05 01:44:46;;;;;;;;;;;;;;;3.46;58.33;99905.47;1715708;82;21318;-70
2022/03/05 01:47:13;;;;;;;4.80;2.90;;;;;;;3.50;58.69;99900.20;1713062;83;20183;-69
2022/03/05 01:49:39;;;;;;;4.55;2.83;;;;;;;3.56;58.09;99904.02;1713271;83;21052;-69
2022/03/05 01:52:06;;;;;;;4.45;2.90;;;;;;;3.50;57.66;99900.20;1715018;82;21238;-68
2022/03/05 01:54:32;;;;;;;6.50;2.95;;;;;;;3.46;57.79;99898.52;1721038;83;21108;-70
2022/03/05 01:56:59;;;;;;;6.03;3.58;;;;;;;3.45;58.06;99899.41;1702403;83;21724;-71
2022/03/05 01:59:26;;;;;;;5.30;3.27;;;;;;;3.39;57.05;99907.28;1685738;85;21105;-69
2022/03/05 02:01:52;;;;;;;3.83;2.90;;;;;;;3.21;58.74;99907.48;1685879;85;21069;-69
2022/03/05 02:04:19;;;;;;;5.08;3.25;;;;;;;3.27;58.84;99904.82;1720556;83;21226;-69
2022/03/05 02:06:47;;;;;;;5.42;3.10;;;;;;;3.38;60.48;99908.14;1720532;83;22079;-68
2022/03/05 02:09:13;;;;;;;5.37;3.35;;;;;;;3.61;60.44;99906.56;1685790;85;21123;-70
2022/03/05 02:11:40;;;;;;;4.72;3.50;;;;;;;3.76;58.58;99905.53;1720755;83;21081;-69
2022/03/05 02:14:07;;;;;;;4.97;3.05;;;;;;;3.77;58.50;99904.63;1721047;82;21124;-70
2022/03/05 02:16:35;;;;;;;5.30;3.40;;;;;;;3.73;57.59;99909.04;1685691;85;21077;-70
2022/03/05 02:19:04;;;;;;;6.85;3.27;;;;;;;3.62;56.49;99907.45;1685746;85;21568;-69
2022/03/05 02:21:30;;;;;;;4.33;3.30;;;;;;;3.52;57.80;99904.96;1720572;83;21042;-69
2022/03/05 02:23:56;;;;;;;3.05;2.35;;;;;;;3.54;57.84;99908.41;1685823;85;21140;-69
2022/03/05 02:26:23;;;;;;;6.92;3.47;;;;;;;3.57;58.31;99905.76;1685761;85;21129;-69
2022/03/05 02:28:50;;;;;;;7.10;3.00;;;;;;;3.57;57.45;99910.97;1720710;83;21268;-70
2022/03/05 02:31:16;;;;;;;4.25;2.95;;;;;;;3.62;58.84;99910.05;1720570;83;21037;-68
2022/03/05 02:33:43;;;;;;;5.70;3.17;;;;;;;3.63;57.30;99915.22;1685815;84;21040;-69
2022/03/05 02:36:10;;;;;;;6.08;3.40;;;;;;;3.63;58.20;99922.19;1686090;85;21018;-69
2022/03/05 02:38:37;;;;;;;4.80;2.80;;;;;;;3.64;58.30;99916.11;1720987;83;21132;-70
2022/03/05 02:41:03;;;;;;;4.60;2.72;;;;;;;3.56;58.38;99920.94;1720645;83;21355;-69
2022/03/05 02:43:30;;;;;;;4.53;2.72;;;;;;;3.63;57.83;99919.58;1685696;83;21062;-69
2022/03/05 02:45:56;;;;;;;4.95;2.80;;;;;;;3.64;57.38;99923.92;1685764;85;21055;-68
2022/03/05 02:48:23;;;;;;;4.85;3.20;;;;;;;3.49;57.39;99920.59;1685717;85;21048;-69
2022/03/05 02:50:50;;;;;;;5.83;3.47;;;;;;;3.45;58.38;99920.23;1686090;85;21052;-68
2022/03/05 02:53:17;;;;;;;4.67;2.95;;;;;;;3.37;60.04;99920.74;1681280;85;21910;-70
2022/03/05 02:55:43;;;;;;;5.80;3.30;;;;;;;3.48;59.51;99928.00;1671568;85;21572;-69
2022/03/05 02:58:10;;;;;;;4.37;3.30;;;;;;;3.53;60.01;99928.80;1694591;84;21048;-68
2022/03/05 03:00:38;;;;;;;4.85;3.45;;;;;;;3.66;59.78;99928.64;1694481;84;21091;-69
2022/03/05 03:03:04;;;;;;;5.50;3.47;;;;;;;3.73;59.48;99921.20;1694312;84;22003;-69
2022/03/05 03:05:32;;;;;;;6.05;3.30;;;;;;;3.77;58.61;99925.47;1694468;84;21945;-70
2022/03/05 03:07:59;;;;;;;5.40;3.10;;;;;;;3.71;57.80;99929.03;1694529;84;21028;-69
2022/03/05 03:10:26;;;;;;;4.37;3.20;;;;;;;3.62;58.42;99933.50;1694545;84;21508;-70
2022/03/05 03:12:53;;;;;;;6.08;3.42;;;;;;;3.56;57.92;99933.96;1694402;84;21075;-70
2022/03/05 03:15:19;;;;;;;4.83;3.08;;;;;;;3.52;57.92;99937.51;1694357;84;21064;-68
2022/03/05 03:17:50;;;;;;;4.08;2.58;;;;;;;3.35;57.97;99940.27;1694411;84;21164;-69
2022/03/05 03:20:23;;;;;;;4.92;3.00;;;;;;;3.22;58.20;99937.81;1694301;84;21051;-70
2022/03/05 03:22:50;;;;;;;4.40;2.95;;;;;;;3.21;59.63;99943.47;1694498;84;21016;-68
2022/03/05 03:25:17;;;;;;;5.15;3.17;;;;;;;3.34;59.44;99946.82;1694608;84;21115;-69
2022/03/05 03:27:43;;;;;;;4.75;3.10;;;;;;;3.43;59.39;99944.12;1694428;84;21082;-71
2022/03/05 03:30:12;;;;;;;4.20;2.50;;;;;;;3.39;57.15;99946.77;1694545;84;21250;-68
2022/03/05 03:32:39;;;;;;;4.92;2.75;;;;;;;3.22;59.35;99946.92;1694433;84;21091;-70
2022/03/05 03:35:07;;;;;;;4.28;2.95;;;;;;;3.18;58.46;99958.27;1694797;84;21064;-69
2022/03/05 03:37:35;;;;;;;4.90;3.00;;;;;;;3.19;60.58;99957.38;1694418;84;21318;-69
2022/03/05 03:40:04;;;;;;;3.55;2.80;;;;;;;3.17;59.07;99960.42;1695053;84;21536;-69
2022/03/05 03:42:30;;;;;;;4.90;2.75;;;;;;;3.21;60.32;99959.53;1694479;83;21327;-70
2022/03/05 03:44:58;;;;;;;5.08;2.83;;;;;;;3.34;60.17;99959.83;1694360;84;21025;-70
2022/03/05 03:47:24;;;;;;;5.30;3.33;;;;;;;3.46;60.12;99953.63;1694330;84;21571;-69
2022/03/05 03:49:52;;;;;;;5.60;2.90;;;;;;;3.64;59.90;99952.57;1694401;84;21065;-70
2022/03/05 03:52:18;;;;;;;5.58;3.10;;;;;;;3.74;58.78;99949.81;1694870;84;21579;-70
2022/03/05 03:54:46;;;;;;;5.72;3.25;;;;;;;3.80;59.31;99952.80;1703027;84;21861;-69
2022/03/05 03:57:13;;;;;;;4.85;2.75;;;;;;;3.92;58.29;99953.09;1702627;84;21059;-69
2022/03/05 03:59:40;;;;;;;4.58;2.95;;;;;;;3.96;57.85;99958.24;1702771;84;21008;-70
2022/03/05 04:02:08;;;;;;;6.00;3.10;;;;;;;3.81;57.68;99950.61;1702722;84;21132;-70
2022/03/05 04:04:34;;;;;;;4.90;3.35;;;;;;;3.77;58.57;99955.42;1703074;84;21055;-70
2022/03/05 04:09:47;;;;;;;5.65;3.58;;;;;;;3.75;57.53;99968.91;1703040;84;21068;-69
2022/03/05 04:12:13;;;;;;;4.65;2.90;;;;;;;3.60;57.63;99974.31;1702633;84;21605;-70
2022/03/05 04:14:40;;;;;;;4.47;3.00;;;;;;;3.53;58.59;99974.37;1702810;84;21564;-70
2022/03/05 04:17:08;;;;;;;4.87;3.02;;;;;;;3.57;58.25;99979.97;1702739;84;21099;-69
2022/03/05 04:19:34;;;;;;;4.80;3.15;;;;;;;3.57;57.98;99982.58;1702953;84;21278;-70
2022/03/05 04:22:03;;;;;;;5.25;3.22;;;;;;;3.50;57.85;99977.02;1702639;84;21060;-69
2022/03/05 04:24:30;;;;;;;6.30;3.20;;;;;;;3.47;58.99;99986.14;1703077;84;21599;-69
2022/03/05 04:26:57;;;;;;;6.37;3.70;;;;;;;3.54;59.16;99981.31;1702739;84;21066;-69
2022/03/05 04:29:24;;;;;;;3.92;2.87;;;;;;;3.62;59.33;99984.27;1702608;84;21074;-69
2022/03/05 04:31:51;;;;;;;4.33;3.08;;;;;;;3.49;56.83;99985.69;1702594;84;21950;-70
2022/03/05 04:34:19;;;;;;;3.35;2.70;;;;;;;3.37;58.16;99992.33;1702584;84;21635;-70
2022/03/05 04:36:46;;;;;;;3.70;2.60;;;;;;;3.33;58.90;99995.39;1702572;84;21131;-69
2022/03/05 04:39:13;;;;;;;5.50;2.95;;;;;;;3.20;57.94;99996.81;1702617;84;21028;-70
2022/03/05 04:41:39;;;;;;;4.75;2.55;;;;;;;3.01;59.04;99999.58;1702762;82;21135;-70
2022/03/05 04:44:07;;;;;;;4.45;2.87;;;;;;;3.01;59.85;100004.78;1702870;82;21222;-70
2022/03/05 04:46:34;;;;;;;4.45;2.62;;;;;;;3.07;59.69;100008.65;1702841;84;21012;-70
2022/03/05 04:49:01;;;;;;;3.52;2.37;;;;;;;3.17;60.47;100012.47;1702871;84;21099;-69
2022/03/05 04:51:28;;;;;;;3.33;2.50;;;;;;;3.34;60.71;100009.30;1715282;83;21505;-69
2022/03/05 04:53:54;;;;;;;3.15;2.35;;;;;;;3.36;59.63;100006.23;1705140;83;21566;-69
2022/03/05 04:56:20;;;;;;;4.37;2.62;;;;;;;3.38;59.24;100013.56;1677438;85;21236;-70
2022/03/05 04:58:47;;;;;;;3.35;2.52;;;;;;;3.51;59.36;100019.53;1676786;85;21095;-68
2022/03/05 05:01:13;;;;;;;5.00;2.52;;;;;;;3.62;59.23;100022.03;1692238;82;21050;-68
2022/03/05 05:03:40;;;;;;;3.05;2.20;;;;;;;3.66;58.42;100026.30;1706688;84;21569;-70
2022/03/05 05:06:07;;;;;;;4.10;2.55;;;;;;;3.73;58.65;100022.78;1706818;84;21129;-69
2022/03/05 05:08:34;;;;;;;2.98;2.27;;;;;;;3.81;58.13;100033.97;1706803;84;21251;-69
2022/03/05 05:11:01;;;;;;;2.98;2.35;;;;;;;3.72;56.78;100039.27;1706769;84;21105;-70
2022/03/05 05:13:27;;;;;;;2.87;1.95;;;;;;;3.61;57.99;100041.13;1706949;84;21607;-70
2022/03/05 05:15:54;;;;;;;3.90;2.17;;;;;;;3.51;57.78;100039.06;1707036;84;21472;-71
2022/03/05 05:18:23;;;;;;;3.77;2.02;;;;;;;3.46;58.04;100043.01;1706879;84;21131;-69
2022/03/05 05:20:51;;;;;;;3.33;2.17;;;;;;;3.25;58.06;100045.81;1707118;84;21054;-70
2022/03/05 05:23:17;;;;;;;3.42;2.22;;;;;;;3.06;57.58;100053.77;1706955;84;21113;-70
2022/03/05 05:25:44;;;;;;;3.85;2.10;;;;;;;3.00;58.40;100057.70;1707245;84;21058;-69
2022/03/05 05:28:11;;;;;;;4.17;2.15;;;;;;;2.92;58.02;100063.39;1706975;84;21081;-69
2022/03/05 05:30:38;;;;;;;3.62;1.98;;;;;;;2.87;58.01;100059.96;1706946;84;21076;-69
2022/03/05 05:33:05;;;;;;;2.55;1.90;;;;;;;2.82;59.79;100057.39;1706710;84;21443;-69
2022/03/05 05:35:31;;;;;;;3.05;2.27;;;;;;;3.09;60.96;100055.03;1706540;84;21066;-70
2022/03/05 05:37:58;;;;;;;3.02;2.00;;;;;;;3.29;59.47;100060.50;1706753;84;21034;-70
2022/03/05 05:40:24;;;;;;;3.10;2.17;;;;;;;3.32;58.36;100055.30;1706938;84;21026;-69
2022/03/05 05:42:51;;;;;;;2.83;1.67;;;;;;;3.36;58.70;100060.45;1706525;83;21573;-69
2022/03/05 05:45:18;;;;;;;2.50;1.90;;;;;;;3.36;57.73;100058.30;1706601;84;21585;-69
2022/03/05 05:47:44;;;;;;;2.45;1.85;;;;;;;3.26;58.36;100061.39;1706655;83;21815;-69
2022/03/05 05:50:12;;;;;;;3.08;2.10;;;;;;;3.33;58.77;100066.11;1707248;82;21522;-69
2022/03/05 05:52:39;;;;;;;3.62;2.08;;;;;;;3.35;58.27;100065.22;1706751;84;21033;-70
2022/03/05 05:55:07;;;;;;;2.58;1.92;;;;;;;3.34;57.62;100067.86;1694800;83;21054;-69
2022/03/05 05:57:35;;;;;;;4.65;2.02;;;;;;;3.40;58.89;100066.92;1685994;84;21077;-69
2022/03/05 06:00:04;;;;;;;3.72;1.70;;;;;;;3.60;58.26;100068.91;1686259;82;21606;-68
2022/03/05 06:02:33;;;;;;;2.20;1.60;;;;;;;3.38;55.08;100074.73;1684942;85;21080;-70
2022/03/05 06:04:59;;;;;;;2.55;1.62;;;;;;;3.17;57.62;100077.53;1685801;85;21092;-69
2022/03/05 06:07:26;;;;;;;2.45;1.52;;;;;;;3.26;57.82;100080.06;1685948;85;21085;-69
2022/03/05 06:09:52;;;;;;;2.55;1.67;;;;;;;3.26;56.93;100081.36;1685891;85;21324;-70
2022/03/05 06:12:20;;;;;;;3.00;1.95;;;;;;;3.21;58.80;100088.34;1685965;85;21101;-70
2022/03/05 06:14:46;;;;;;;3.08;1.85;;;;;;;3.36;57.76;100088.23;1685972;85;21025;-69
2022/03/05 06:17:13;;;;;;;2.70;1.65;;;;;;;3.51;57.30;100091.98;1685959;85;21088;-70
2022/03/05 06:19:39;;;;;;;3.15;1.87;;;;;;;3.55;55.39;100104.56;1686060;85;21065;-70
2022/03/05 06:22:06;;;;;;;2.80;2.10;;;;;;;3.49;57.70;100098.95;1686190;85;21287;-69
2022/03/05 06:24:33;;;;;;;3.83;2.30;;;;;;;3.65;57.18;100100.12;1685818;85;21057;-69
2022/03/05 06:27:00;;;;;;;3.83;2.40;;;;;;;3.65;57.62;100097.07;1685802;85;21069;-69
2022/03/05 06:29:26;;;;;;;3.40;2.37;;;;;;;3.76;56.98;100105.65;1685899;85;21046;-71
2022/03/05 06:31:54;;;;;;;4.15;2.55;;;;;;;3.91;56.70;100105.95;1685809;85;21065;-70
2022/03/05 06:34:20;;;;;;;2.33;1.65;;;;;;;3.94;55.94;100113.73;1685716;85;21268;-70
2022/03/05 06:36:48;;;;;;;2.02;1.37;;;;;;;3.85;56.08;100113.82;1685562;85;21065;-69
2022/03/05 06:39:15;;;;;;;2.47;1.70;;;;;;;3.83;55.99;100116.88;1685821;85;21093;-68
2022/03/05 06:41:42;;;;;;;2.37;1.65;;;;;;;3.83;56.49;100122.09;1685842;84;21116;-69
2022/03/05 06:44:09;;;;;;;3.08;1.98;;;;;;;3.84;55.94;100122.95;1685764;84;21074;-70
2022/03/05 06:46:35;;;;;;;3.05;2.20;;;;;;;3.92;54.72;100119.39;1685905;85;21311;-70
2022/03/05 06:49:02;;;;;;;4.65;1.92;;;;;;;3.77;54.15;100126.05;1685911;85;21069;-69
2022/03/05 06:51:29;;;;;;;2.40;1.67;;;;;;;3.58;55.94;100126.20;1686214;85;21115;-70
2022/03/05 06:53:55;;;;;;;3.25;1.80;;;;;;;3.61;55.43;100124.01;1685955;85;21069;-70
2022/03/05 06:56:22;;;;;;;3.10;1.87;;;;;;;3.66;55.65;100131.78;1685881;84;21113;-69
2022/03/05 06:58:49;;;;;;;1.90;1.60;;;;;;;3.71;56.50;100124.38;1685766;85;21137;-70
2022/03/05 07:01:15;;;;;;;2.58;1.55;;;;;;;3.87;56.68;100135.52;1685716;85;21049;-69
2022/03/05 07:03:42;;;;;;;14.25;2.30;;;;;;;4.10;56.80;100133.13;1685933;85;21562;-70
2022/03/05 07:06:08;;;;;;;9.98;2.15;;;;;;;4.15;54.27;100132.18;1686009;84;21132;-70
2022/03/05 07:08:37;;;;;;;3.30;1.90;;;;;;;4.18;55.57;100135.19;1685871;84;21053;-70
2022/03/05 07:11:04;;;;;;;2.58;1.70;;;;;;;4.18;52.66;100133.44;1685710;85;21090;-70
2022/03/05 07:13:32;;;;;;;4.37;1.90;;;;;;;4.03;54.32;100140.59;1685695;85;21053;-70
2022/03/05 07:15:58;;;;;;;2.95;1.77;;;;;;;4.01;52.04;100144.95;1720322;82;21052;-69
2022/03/05 07:18:25;;;;;;;4.47;2.08;;;;;;;3.96;54.54;100144.99;1744468;82;21081;-70
2022/03/05 07:20:51;;;;;;;5.87;3.05;;;;;;;4.13;54.58;100143.51;1744384;82;21065;-71
2022/03/05 07:23:18;;;;;;;3.45;2.17;;;;;;;4.19;52.58;100148.67;1744487;82;21236;-69
2022/03/05 07:25:45;;;;;;;2.27;1.72;;;;;;;4.09;53.32;100147.02;1744281;82;21085;-69
2022/03/05 07:28:12;;;;;;;2.72;1.65;;;;;;;4.18;53.23;100148.22;1744415;82;21061;-69
2022/03/05 07:30:38;;;;;;;1.92;1.62;;;;;;;4.34;53.54;100149.78;1744285;82;21085;-70
2022/03/05 07:33:05;;;;;;;3.58;1.87;;;;;;;4.37;50.95;100156.70;1744224;82;21050;-69
2022/03/05 07:35:31;;;;;;;3.05;1.92;;;;;;;4.18;50.63;100146.92;1744228;82;21134;-68
2022/03/05 07:37:58;;;;;;;2.85;1.67;;;;;;;4.04;53.27;100157.48;1744518;82;21057;-70
2022/03/05 07:40:25;;;;;;;3.10;1.80;;;;;;;4.12;51.87;100153.52;1744237;82;21610;-70
2022/03/05 07:42:51;;;;;;;2.42;1.75;;;;;;;4.05;51.67;100149.22;1743979;81;21097;-70
2022/03/05 07:45:19;;;;;;;3.67;2.27;;;;;;;4.07;52.69;100150.08;1744146;82;21088;-69
2022/03/05 07:47:46;;;;;;;4.17;1.87;;;;;;;4.27;51.28;100149.88;1744073;82;21209;-69
2022/03/05 07:50:12;;;;;;;3.45;1.90;;;;;;;4.42;51.10;100147.11;1744356;82;21014;-69
2022/03/05 07:52:39;;;;;;;2.25;1.77;;;;;;;4.45;49.68;100143.59;1744134;82;21041;-68
2022/03/05 07:55:07;;;;;;;2.70;1.75;;;;;;;4.33;50.14;100150.67;1702017;82;21075;-70
2022/03/05 07:57:34;;;;;;;1.95;1.45;;;;;;;4.25;51.46;100148.58;1727645;83;21632;-70
2022/03/05 08:00:00;;;;;;;5.67;1.70;;;;;;;4.50;51.51;100152.22;1728046;83;21169;-70
2022/03/05 08:02:27;;;;;;;2.25;1.67;;;;;;;4.80;50.23;100153.13;1727777;83;21036;-69
2022/03/05 08:04:53;;;;;;;1.77;1.62;;;;;;;4.74;49.39;100157.15;1727934;83;21820;-69
2022/03/05 08:07:21;;;;;;;2.93;1.70;;;;;;;4.82;51.07;100155.28;1727704;83;21056;-69
2022/03/05 08:09:47;;;;;;;3.22;1.80;;;;;;;5.14;50.64;100158.35;1727845;83;21087;-70
2022/03/05 08:12:14;;;;;;;3.60;1.85;;;;;;;5.32;46.68;100150.25;1727780;83;21143;-69
2022/03/05 08:14:44;;;;;;;2.85;1.50;;;;;;;5.15;49.22;100160.92;1727699;83;21528;-71
2022/03/05 08:17:12;;;;;;;3.52;1.70;;;;;;;5.22;49.19;100162.58;1727698;83;21032;-70
2022/03/05 08:19:41;;;;;;;2.33;1.55;;;;;;;5.37;49.27;100158.02;1708579;83;21056;-68
2022/03/05 08:22:07;;;;;;;3.27;1.80;;;;;;;5.45;48.88;100161.34;1728040;83;21059;-69
2022/03/05 08:24:34;;;;;;;2.83;1.70;;;;;;;5.52;48.62;100163.01;1728047;83;21426;-69
2022/03/05 08:27:01;;;;;;;2.12;1.45;;;;;;;5.68;48.76;100156.64;1727959;83;21024;-70
2022/03/05 08:29:28;;;;;;;2.85;1.77;;;;;;;5.72;47.99;100161.80;1727800;83;21043;-70
2022/03/05 08:31:55;;;;;;;3.10;1.62;;;;;;;5.68;47.15;100163.59;1727908;83;21055;-71
2022/03/05 08:34:21;;;;;;;3.37;1.80;;;;;;;5.78;47.67;100163.02;1727961;83;21091;-69
2022/03/05 08:49:46;;;;;;;2.62;1.60;;;;;;;6.15;45.66;100177.64;1853719;77;28091;-69
2022/03/05 08:52:12;;;;;;;2.02;1.70;;;;;;;5.99;44.14;100182.28;1825912;78;21040;-68
2022/03/05 08:54:39;;;;;;;1.90;1.50;;;;;;;5.69;44.70;100188.85;1822253;78;21204;-70
2022/03/05 08:57:06;;;;;;;2.58;1.50;;;;;;;5.63;46.25;100194.16;1818755;78;21603;-69
2022/03/05 08:59:33;;;;;;;3.30;1.98;;;;;;;5.80;45.27;100196.53;1818736;78;21072;-69
2022/03/05 09:02:00;;;;;;;4.95;1.70;;;;;;;5.65;45.06;100197.17;1819347;78;21012;-70
2022/03/05 09:04:26;;;;;;;3.25;1.85;;;;;;;5.37;46.03;100191.96;1818616;78;21480;-70
2022/03/05 09:06:53;;;;;;;3.08;1.95;;;;;;;5.26;46.42;100203.41;1818720;78;22102;-70
2022/03/05 09:09:20;;;;;;;4.50;1.72;;;;;;;5.31;47.57;100199.87;1818561;78;21070;-70
2022/03/05 09:11:46;;;;;;;3.00;1.95;;;;;;;5.43;47.72;100202.33;1819112;78;21049;-69
2022/03/05 09:14:14;;;;;;;2.45;1.70;;;;;;;5.47;46.09;100203.98;1818946;78;21001;-69
2022/03/05 09:16:42;;;;;;;2.80;1.62;;;;;;;5.20;46.22;100208.73;1819217;78;21080;-69
2022/03/05 09:19:09;;;;;;;2.55;1.77;;;;;;;4.94;47.71;100213.42;1819016;78;21322;-70
2022/03/05 09:21:36;;;;;;;2.85;1.82;;;;;;;4.95;47.35;100219.08;1819213;78;21061;-70
2022/03/05 09:24:05;;;;;;;9.88;2.17;;;;;;;4.84;46.64;100217.45;1819096;78;21104;-70
2022/03/05 09:26:32;;;;;;;4.70;1.50;;;;;;;4.60;46.80;100217.73;1819162;78;21521;-71
2022/03/05 09:28:58;;;;;;;2.20;1.60;;;;;;;4.54;47.89;100224.34;1818950;78;21037;-70
2022/03/05 09:31:25;;;;;;;3.50;1.55;;;;;;;4.58;47.50;100223.43;1804191;78;21207;-70
2022/03/05 09:33:52;;;;;;;2.33;1.70;;;;;;;4.62;48.47;100221.19;1792890;80;21025;-69
2022/03/05 09:36:18;;;;;;;5.58;1.87;;;;;;;4.71;49.20;100227.61;1793414;80;21064;-70
2022/03/05 09:38:45;;;;;;;2.25;1.67;;;;;;;4.76;48.49;100223.22;1792904;80;21575;-69
2022/03/05 09:41:12;;;;;;;3.85;1.57;;;;;;;4.66;48.82;100224.19;1756318;80;21584;-69
2022/03/05 09:43:38;;;;;;;3.60;1.70;;;;;;;4.59;48.50;100222.53;1748109;82;21142;-69
2022/03/05 09:46:05;;;;;;;3.25;1.75;;;;;;;4.46;47.98;100227.01;1747959;82;21038;-69
2022/03/05 09:48:31;;;;;;;2.90;1.47;;;;;;;4.33;48.32;100226.73;1745603;82;21006;-70
2022/03/05 09:50:58;;;;;;;2.27;1.50;;;;;;;4.19;49.92;100226.87;1739522;81;21057;-70
2022/03/05 09:53:29;;;;;;;3.60;1.40;;;;;;;4.29;50.71;100231.55;1739455;82;21081;-69
2022/03/05 09:55:57;;;;;;;2.45;1.50;;;;;;;4.40;50.07;100233.16;1726757;83;21344;-70
2022/03/05 09:58:24;;;;;;;1.72;1.35;;;;;;;4.49;50.29;100226.14;1726906;83;21557;-69
2022/03/05 10:00:52;;;;;;;4.65;2.02;;;;;;;4.65;50.94;100235.52;1748131;82;21010;-69
2022/03/05 10:03:22;;;;;;;4.75;1.87;;;;;;;4.78;50.02;100241.00;1748097;82;21117;-68
2022/03/05 10:05:50;;;;;;;2.92;1.72;;;;;;;4.84;49.68;100237.02;1716795;83;21115;-71
2022/03/05 10:08:20;;;;;;;2.10;1.40;;;;;;;4.94;50.33;100245.59;1748108;82;21229;-69
2022/03/05 10:10:59;;;;;;;4.10;1.67;;;;;;;5.03;49.86;100235.48;1716846;83;21601;-70
2022/03/05 10:13:31;;;;;;;2.87;1.80;;;;;;;5.02;48.20;100241.61;1747815;82;21021;-68
2022/03/05 10:16:01;;;;;;;3.58;1.90;;;;;;;4.95;49.70;100238.66;1716730;83;21062;-70
2022/03/05 10:18:39;;;;;;;3.90;2.00;;;;;;;4.90;48.13;100240.44;1748046;81;21587;-70
2022/03/05 10:21:09;;;;;;;9.55;1.60;;;;;;;4.70;49.03;100238.94;1690881;82;21145;-70
2022/03/05 10:23:39;;;;;;;3.12;1.80;;;;;;;4.61;49.78;100236.43;1778792;80;21045;-69
2022/03/05 10:26:07;;;;;;;3.92;1.60;;;;;;;4.65;49.37;100238.13;1746532;82;21057;-69
2022/03/05 10:28:38;;;;;;;7.20;2.05;;;;;;;4.62;48.52;100239.45;1779149;80;21007;-69
2022/03/05 10:31:09;;;;;;;3.47;2.00;;;;;;;4.46;49.67;100235.28;1715479;82;21631;-68
2022/03/05 10:33:45;;;;;;;3.87;2.02;;;;;;;4.51;52.18;100237.39;1778803;80;21073;-68
2022/03/05 10:36:21;;;;;;;10.90;2.20;;;;;;;4.70;48.99;100233.72;1747772;82;21065;-69
2022/03/05 10:38:56;;;;;;;4.33;1.90;;;;;;;4.57;49.47;100225.15;1746116;82;21152;-68
2022/03/05 10:41:38;;;;;;;2.55;1.60;;;;;;;4.31;49.44;100224.58;1778706;80;21463;-69
2022/03/05 10:44:15;;;;;;;4.30;1.60;;;;;;;4.27;50.07;100226.34;1745128;82;21568;-69
2022/03/05 10:46:55;;;;;;;2.33;1.57;;;;;;;4.35;51.36;100219.31;1779044;80;21246;-71
2022/03/05 10:49:28;;;;;;;3.20;1.75;;;;;;;4.56;51.85;100219.97;1748132;80;21092;-68
2022/03/05 10:52:06;;;;;;;4.58;1.90;;;;;;;4.71;51.88;100230.21;1779038;80;21013;-69
2022/03/05 10:54:44;;;;;;;2.55;1.80;;;;;;;4.95;51.20;100223.00;1778322;80;21047;-69
2022/03/05 10:57:24;;;;;;;3.98;2.10;;;;;;;5.06;50.96;100228.91;1777574;80;21077;-71
2022/03/05 10:59:55;;;;;;;3.35;1.98;;;;;;;5.17;48.87;100229.64;1684214;83;21166;-70
2022/03/05 11:02:23;;;;;;;4.90;2.50;;;;;;;5.03;49.27;100227.66;1712483;80;21541;-69
2022/03/05 11:04:50;;;;;;;4.97;2.40;;;;;;;5.14;51.12;100225.78;1777382;80;21034;-69
2022/03/05 11:07:19;;;;;;;4.80;2.37;;;;;;;5.36;49.99;100229.39;1712968;83;21564;-69
2022/03/05 11:09:47;;;;;;;8.13;2.70;;;;;;;5.33;49.07;100224.22;1777315;80;21010;-71
2022/03/05 11:12:19;;;;;;;4.30;2.17;;;;;;;5.34;49.59;100229.44;1777184;80;21251;-70
2022/03/05 11:14:49;;;;;;;2.87;2.05;;;;;;;5.44;47.87;100228.41;1712872;83;21061;-69
2022/03/05 11:17:17;;;;;;;5.35;2.50;;;;;;;5.26;48.64;100226.91;1777322;80;21069;-70
2022/03/05 11:19:44;;;;;;;5.08;2.08;;;;;;;5.30;48.21;100232.11;1777344;80;21058;-69
2022/03/05 11:22:11;;;;;;;5.90;2.62;;;;;;;5.32;49.69;100228.59;1777672;80;21033;-70
2022/03/05 11:24:41;;;;;;;4.50;2.72;;;;;;;5.40;48.69;100228.02;1777065;80;21142;-69
2022/03/05 11:27:13;;;;;;;4.75;2.52;;;;;;;5.42;49.00;100232.78;1777016;80;21055;-69
2022/03/05 11:30:00;;;;;;;4.80;2.92;;;;;;;5.49;48.29;100219.20;1777223;80;21013;-69
2022/03/05 11:32:34;;;;;;;4.62;2.33;;;;;;;5.24;45.70;100226.52;1777421;80;21046;-70
2022/03/05 11:35:01;;;;;;;5.53;3.25;;;;;;;4.85;48.13;100226.14;1777128;80;21076;-69
2022/03/05 11:37:34;;;;;;;6.78;3.40;;;;;;;4.80;46.77;100226.19;1777122;80;21309;-70
2022/03/05 11:40:04;;;;;;;5.62;3.15;;;;;;;4.68;47.41;100226.80;1712844;83;21561;-69
2022/03/05 11:42:37;;;;;;;6.75;3.25;;;;;;;4.43;48.28;100220.98;1777625;80;21109;-71
2022/03/05 11:45:27;;;;;;;6.05;3.77;;;;;;;4.47;48.59;100220.93;1776210;80;21007;-69
2022/03/05 11:48:24;;;;;;;9.33;3.57;;;;;;;4.45;47.41;100220.08;1696997;80;21054;-69
2022/03/05 11:50:53;;;;;;;10.53;4.17;;;;;;;4.41;48.62;100221.84;1679695;84;21150;-70
2022/03/05 11:53:20;;;;;;;6.10;3.55;;;;;;;4.60;47.97;100225.55;1689452;84;21061;-69
2022/03/05 11:55:49;;;;;;;7.17;4.10;;;;;;;4.75;48.04;100229.30;1722911;80;21088;-69